sensor_id;sensor_type;location;lat;lon;timestamp;P1;durP1;ratioP1;P2;durP2;ratioP2
1296;SDS011;641;48.492;9.184;2022-09-02T00:01:43;9.37;;;4.00;;
1296;SDS011;641;48.492;9.184;2022-09-02T00:04:14;7.77;;;3.47;;
1296;SDS011;641;48.492;9.184;2022-09-02T00:06:46;10.07;;;4.00;;
1296;SDS011;641;48.492;9.184;2022-09-02T00:09:13;14.03;;;4.30;;
1296;SDS011;641;48.492;9.184;2022-09-02T00:11:41;10.13;;;3.80;;
1296;SDS011;641;48.492;9.184;2022-09-02T00:14:10;8.40;;;3.43;;
1296;SDS011;641;48.492;9.184;2022-09-02T00:16:38;7.90;;;3.50;;
1296;SDS011;641;48.492;9.184;2022-09-02T00:19:05;9.20;;;3.40;;
1296;SDS011;641;48.492;9.184;2022-09-02T00:21:33;9.97;;;3.83;;
1296;SDS011;641;48.492;9.184;2022-09-02T00:23:59;11.03;;;4.70;;
1296;SDS011;641;48.492;9.184;2022-09-02T00:26:27;10.00;;;4.83;;
1296;SDS011;641;48.492;9.184;2022-09-02T00:28:52;12.70;;;3.90;;
1296;SDS011;641;48.492;9.184;2022-09-02T00:31:18;9.83;;;4.20;;
1296;SDS011;641;48.492;9.184;2022-09-02T00:33:44;9.50;;;4.43;;
1296;SDS011;641;48.492;9.184;2022-09-02T00:36:10;12.40;;;4.27;;
1296;SDS011;641;48.492;9.184;2022-09-02T00:38:37;10.30;;;4.70;;
1296;SDS011;641;48.492;9.184;2022-09-02T00:41:04;9.07;;;4.13;;
1296;SDS011;641;48.492;9.184;2022-09-02T00:46:06;9.10;;;4.13;;
1296;SDS011;641;48.492;9.184;2022-09-02T00:48:33;8.43;;;4.07;;
1296;SDS011;641;48.492;9.184;2022-09-02T00:51:01;16.80;;;4.13;;
1296;SDS011;641;48.492;9.184;2022-09-02T00:53:28;8.90;;;4.07;;
1296;SDS011;641;48.492;9.184;2022-09-02T00:55:54;10.50;;;4.10;;
1296;SDS011;641;48.492;9.184;2022-09-02T00:58:23;7.80;;;3.67;;
1296;SDS011;641;48.492;9.184;2022-09-02T01:00:51;7.77;;;3.50;;
1296;SDS011;641;48.492;9.184;2022-09-02T01:03:22;8.80;;;3.70;;
1296;SDS011;641;48.492;9.184;2022-09-02T01:05:49;8.60;;;3.53;;
1296;SDS011;641;48.492;9.184;2022-09-02T01:08:18;14.67;;;3.80;;
1296;SDS011;641;48.492;9.184;2022-09-02T01:10:52;8.47;;;3.77;;
1296;SDS011;641;48.492;9.184;2022-09-02T01:13:21;9.37;;;4.20;;
1296;SDS011;641;48.492;9.184;2022-09-02T01:18:49;8.03;;;3.53;;
1296;SDS011;641;48.492;9.184;2022-09-02T01:21:17;9.93;;;3.53;;
1296;SDS011;641;48.492;9.184;2022-09-02T01:23:44;9.23;;;3.70;;
1296;SDS011;641;48.492;9.184;2022-09-02T01:26:10;9.07;;;3.97;;
1296;SDS011;641;48.492;9.184;2022-09-02T01:28:36;9.60;;;3.60;;
1296;SDS011;641;48.492;9.184;2022-09-02T01:31:02;10.10;;;3.40;;
1296;SDS011;641;48.492;9.184;2022-09-02T01:33:28;11.43;;;3.90;;
1296;SDS011;641;48.492;9.184;2022-09-02T01:35:54;8.30;;;3.70;;
1296;SDS011;641;48.492;9.184;2022-09-02T01:38:21;9.10;;;3.30;;
1296;SDS011;641;48.492;9.184;2022-09-02T01:40:47;9.13;;;3.50;;
1296;SDS011;641;48.492;9.184;2022-09-02T01:43:17;7.70;;;3.37;;
1296;SDS011;641;48.492;9.184;2022-09-02T01:45:46;10.73;;;3.67;;
1296;SDS011;641;48.492;9.184;2022-09-02T01:48:14;8.53;;;3.63;;
1296;SDS011;641;48.492;9.184;2022-09-02T01:50:42;8.40;;;3.30;;
1296;SDS011;641;48.492;9.184;2022-09-02T01:53:10;8.40;;;3.60;;
1296;SDS011;641;48.492;9.184;2022-09-02T01:55:36;7.63;;;2.93;;
1296;SDS011;641;48.492;9.184;2022-09-02T01:58:02;10.43;;;4.30;;
1296;SDS011;641;48.492;9.184;2022-09-02T02:00:28;10.13;;;3.53;;
1296;SDS011;641;48.492;9.184;2022-09-02T02:02:53;11.27;;;3.80;;
1296;SDS011;641;48.492;9.184;2022-09-02T02:05:19;7.90;;;3.43;;
1296;SDS011;641;48.492;9.184;2022-09-02T02:07:46;8.63;;;3.67;;
1296;SDS011;641;48.492;9.184;2022-09-02T02:10:12;8.30;;;3.73;;
1296;SDS011;641;48.492;9.184;2022-09-02T02:12:38;9.60;;;3.70;;
1296;SDS011;641;48.492;9.184;2022-09-02T02:15:05;8.33;;;3.60;;
1296;SDS011;641;48.492;9.184;2022-09-02T02:17:34;13.20;;;3.97;;
1296;SDS011;641;48.492;9.184;2022-09-02T02:20:00;7.70;;;3.20;;
1296;SDS011;641;48.492;9.184;2022-09-02T02:22:25;7.90;;;3.30;;
1296;SDS011;641;48.492;9.184;2022-09-02T02:24:51;10.80;;;4.00;;
1296;SDS011;641;48.492;9.184;2022-09-02T02:27:18;8.63;;;3.87;;
1296;SDS011;641;48.492;9.184;2022-09-02T02:29:43;9.00;;;3.70;;
1296;SDS011;641;48.492;9.184;2022-09-02T02:32:09;8.63;;;3.60;;
1296;SDS011;641;48.492;9.184;2022-09-02T02:34:35;11.70;;;4.30;;
1296;SDS011;641;48.492;9.184;2022-09-02T02:37:01;7.93;;;3.63;;
1296;SDS011;641;48.492;9.184;2022-09-02T02:39:26;8.30;;;3.67;;
1296;SDS011;641;48.492;9.184;2022-09-02T02:41:52;11.20;;;3.67;;
1296;SDS011;641;48.492;9.184;2022-09-02T02:44:18;8.43;;;3.90;;
1296;SDS011;641;48.492;9.184;2022-09-02T02:46:43;8.33;;;3.83;;
1296;SDS011;641;48.492;9.184;2022-09-02T02:49:09;10.00;;;4.37;;
1296;SDS011;641;48.492;9.184;2022-09-02T02:51:35;9.07;;;4.57;;
1296;SDS011;641;48.492;9.184;2022-09-02T02:54:01;9.90;;;4.70;;
1296;SDS011;641;48.492;9.184;2022-09-02T02:56:27;9.50;;;4.33;;
1296;SDS011;641;48.492;9.184;2022-09-02T02:58:54;9.00;;;4.00;;
1296;SDS011;641;48.492;9.184;2022-09-02T03:01:21;9.37;;;4.50;;
1296;SDS011;641;48.492;9.184;2022-09-02T03:03:47;11.00;;;4.70;;
1296;SDS011;641;48.492;9.184;2022-09-02T03:06:12;9.30;;;4.20;;
1296;SDS011;641;48.492;9.184;2022-09-02T03:08:38;8.60;;;4.50;;
1296;SDS011;641;48.492;9.184;2022-09-02T03:11:04;7.80;;;3.97;;
1296;SDS011;641;48.492;9.184;2022-09-02T03:13:31;10.50;;;4.50;;
1296;SDS011;641;48.492;9.184;2022-09-02T03:15:57;8.10;;;3.83;;
1296;SDS011;641;48.492;9.184;2022-09-02T03:18:23;8.43;;;3.90;;
1296;SDS011;641;48.492;9.184;2022-09-02T03:20:49;9.10;;;4.00;;
1296;SDS011;641;48.492;9.184;2022-09-02T03:23:15;10.57;;;5.33;;
1296;SDS011;641;48.492;9.184;2022-09-02T03:25:43;8.50;;;4.40;;
1296;SDS011;641;48.492;9.184;2022-09-02T03:28:09;9.73;;;3.97;;
1296;SDS011;641;48.492;9.184;2022-09-02T03:30:36;10.83;;;4.10;;
1296;SDS011;641;48.492;9.184;2022-09-02T03:33:03;9.67;;;4.30;;
1296;SDS011;641;48.492;9.184;2022-09-02T03:35:30;9.50;;;3.70;;
1296;SDS011;641;48.492;9.184;2022-09-02T03:37:57;8.67;;;4.03;;
1296;SDS011;641;48.492;9.184;2022-09-02T03:40:24;11.03;;;4.93;;
1296;SDS011;641;48.492;9.184;2022-09-02T03:42:51;8.60;;;4.07;;
1296;SDS011;641;48.492;9.184;2022-09-02T03:45:18;8.33;;;3.83;;
1296;SDS011;641;48.492;9.184;2022-09-02T03:47:44;7.80;;;3.20;;
1296;SDS011;641;48.492;9.184;2022-09-02T03:53:13;9.30;;;4.57;;
1296;SDS011;641;48.492;9.184;2022-09-02T03:55:39;11.90;;;3.60;;
1296;SDS011;641;48.492;9.184;2022-09-02T03:58:04;10.40;;;3.20;;
1296;SDS011;641;48.492;9.184;2022-09-02T04:00:30;7.67;;;3.00;;
1296;SDS011;641;48.492;9.184;2022-09-02T04:02:57;7.40;;;2.70;;
1296;SDS011;641;48.492;9.184;2022-09-02T04:05:24;8.30;;;3.17;;
1296;SDS011;641;48.492;9.184;2022-09-02T04:07:50;7.70;;;2.40;;
1296;SDS011;641;48.492;9.184;2022-09-02T04:10:16;7.40;;;2.37;;
1296;SDS011;641;48.492;9.184;2022-09-02T04:12:42;7.47;;;2.40;;
1296;SDS011;641;48.492;9.184;2022-09-02T04:15:08;7.90;;;2.40;;
1296;SDS011;641;48.492;9.184;2022-09-02T04:17:36;8.43;;;2.77;;
1296;SDS011;641;48.492;9.184;2022-09-02T04:20:04;9.03;;;2.47;;
1296;SDS011;641;48.492;9.184;2022-09-02T04:22:31;7.50;;;2.40;;
1296;SDS011;641;48.492;9.184;2022-09-02T04:24:57;11.20;;;3.10;;
1296;SDS011;641;48.492;9.184;2022-09-02T04:27:23;6.80;;;2.60;;
1296;SDS011;641;48.492;9.184;2022-09-02T04:29:49;7.30;;;2.17;;
1296;SDS011;641;48.492;9.184;2022-09-02T04:32:14;8.27;;;2.77;;
1296;SDS011;641;48.492;9.184;2022-09-02T04:34:40;9.63;;;3.50;;
1296;SDS011;641;48.492;9.184;2022-09-02T04:37:06;8.20;;;3.17;;
1296;SDS011;641;48.492;9.184;2022-09-02T04:39:31;7.47;;;2.73;;
1296;SDS011;641;48.492;9.184;2022-09-02T04:41:57;8.80;;;3.27;;
1296;SDS011;641;48.492;9.184;2022-09-02T04:44:23;8.93;;;2.90;;
1296;SDS011;641;48.492;9.184;2022-09-02T04:46:49;7.23;;;2.80;;
1296;SDS011;641;48.492;9.184;2022-09-02T04:49:15;8.70;;;3.60;;
1296;SDS011;641;48.492;9.184;2022-09-02T04:51:41;7.77;;;3.03;;
1296;SDS011;641;48.492;9.184;2022-09-02T04:54:07;8.17;;;3.30;;
1296;SDS011;641;48.492;9.184;2022-09-02T04:56:33;8.00;;;3.40;;
1296;SDS011;641;48.492;9.184;2022-09-02T04:58:59;7.77;;;2.97;;
1296;SDS011;641;48.492;9.184;2022-09-02T05:01:26;7.90;;;3.00;;
1296;SDS011;641;48.492;9.184;2022-09-02T05:03:56;9.20;;;3.00;;
1296;SDS011;641;48.492;9.184;2022-09-02T05:06:23;8.37;;;3.50;;
1296;SDS011;641;48.492;9.184;2022-09-02T05:08:51;9.60;;;3.30;;
1296;SDS011;641;48.492;9.184;2022-09-02T05:11:18;13.13;;;3.60;;
1296;SDS011;641;48.492;9.184;2022-09-02T05:13:46;12.07;;;3.50;;
1296;SDS011;641;48.492;9.184;2022-09-02T05:16:16;11.23;;;3.10;;
1296;SDS011;641;48.492;9.184;2022-09-02T05:18:51;8.03;;;3.17;;
1296;SDS011;641;48.492;9.184;2022-09-02T05:21:18;9.47;;;2.53;;
1296;SDS011;641;48.492;9.184;2022-09-02T05:23:44;10.10;;;3.60;;
1296;SDS011;641;48.492;9.184;2022-09-02T05:26:10;10.60;;;3.60;;
1296;SDS011;641;48.492;9.184;2022-09-02T05:28:37;10.03;;;3.97;;
1296;SDS011;641;48.492;9.184;2022-09-02T05:31:08;8.30;;;3.03;;
1296;SDS011;641;48.492;9.184;2022-09-02T05:33:38;11.60;;;3.27;;
1296;SDS011;641;48.492;9.184;2022-09-02T05:36:06;9.03;;;3.40;;
1296;SDS011;641;48.492;9.184;2022-09-02T05:38:33;8.30;;;3.47;;
1296;SDS011;641;48.492;9.184;2022-09-02T05:41:03;8.93;;;3.20;;
1296;SDS011;641;48.492;9.184;2022-09-02T05:43:40;8.10;;;3.40;;
1296;SDS011;641;48.492;9.184;2022-09-02T05:46:09;10.00;;;4.23;;
1296;SDS011;641;48.492;9.184;2022-09-02T05:48:36;9.10;;;3.70;;
1296;SDS011;641;48.492;9.184;2022-09-02T05:51:21;9.60;;;2.60;;
1296;SDS011;641;48.492;9.184;2022-09-02T05:53:51;9.47;;;3.90;;
1296;SDS011;641;48.492;9.184;2022-09-02T05:56:17;8.30;;;2.83;;
1296;SDS011;641;48.492;9.184;2022-09-02T05:58:43;8.63;;;3.97;;
1296;SDS011;641;48.492;9.184;2022-09-02T06:01:09;8.40;;;3.17;;
1296;SDS011;641;48.492;9.184;2022-09-02T06:03:37;9.80;;;3.80;;
1296;SDS011;641;48.492;9.184;2022-09-02T06:06:03;9.20;;;3.60;;
1296;SDS011;641;48.492;9.184;2022-09-02T06:08:29;9.53;;;4.00;;
1296;SDS011;641;48.492;9.184;2022-09-02T06:10:55;8.10;;;3.30;;
1296;SDS011;641;48.492;9.184;2022-09-02T06:13:21;8.60;;;3.87;;
1296;SDS011;641;48.492;9.184;2022-09-02T06:15:47;10.40;;;4.47;;
1296;SDS011;641;48.492;9.184;2022-09-02T06:18:14;8.43;;;3.53;;
1296;SDS011;641;48.492;9.184;2022-09-02T06:20:41;10.63;;;3.63;;
1296;SDS011;641;48.492;9.184;2022-09-02T06:23:08;10.90;;;3.50;;
1296;SDS011;641;48.492;9.184;2022-09-02T06:25:35;15.60;;;4.30;;
1296;SDS011;641;48.492;9.184;2022-09-02T06:28:05;7.83;;;3.10;;
1296;SDS011;641;48.492;9.184;2022-09-02T06:30:31;12.93;;;4.33;;
1296;SDS011;641;48.492;9.184;2022-09-02T06:32:58;10.50;;;3.77;;
1296;SDS011;641;48.492;9.184;2022-09-02T06:35:24;10.30;;;3.60;;
1296;SDS011;641;48.492;9.184;2022-09-02T06:37:49;9.17;;;3.10;;
1296;SDS011;641;48.492;9.184;2022-09-02T06:40:15;8.90;;;3.33;;
1296;SDS011;641;48.492;9.184;2022-09-02T06:42:43;8.00;;;3.13;;
1296;SDS011;641;48.492;9.184;2022-09-02T06:45:09;9.07;;;3.40;;
1296;SDS011;641;48.492;9.184;2022-09-02T06:47:34;12.43;;;3.13;;
1296;SDS011;641;48.492;9.184;2022-09-02T06:50:00;8.87;;;3.07;;
1296;SDS011;641;48.492;9.184;2022-09-02T06:52:26;8.20;;;2.90;;
1296;SDS011;641;48.492;9.184;2022-09-02T06:54:52;10.30;;;3.20;;
1296;SDS011;641;48.492;9.184;2022-09-02T07:00:06;8.00;;;2.60;;
1296;SDS011;641;48.492;9.184;2022-09-02T07:02:57;8.17;;;2.90;;
1296;SDS011;641;48.492;9.184;2022-09-02T07:05:41;8.87;;;2.33;;
1296;SDS011;641;48.492;9.184;2022-09-02T07:08:07;8.57;;;2.53;;
1296;SDS011;641;48.492;9.184;2022-09-02T07:10:36;10.03;;;3.53;;
1296;SDS011;641;48.492;9.184;2022-09-02T07:13:06;10.60;;;2.87;;
1296;SDS011;641;48.492;9.184;2022-09-02T07:15:32;8.60;;;2.87;;
1296;SDS011;641;48.492;9.184;2022-09-02T07:17:58;8.03;;;2.73;;
1296;SDS011;641;48.492;9.184;2022-09-02T07:20:24;7.80;;;2.87;;
1296;SDS011;641;48.492;9.184;2022-09-02T07:22:50;9.10;;;3.00;;
1296;SDS011;641;48.492;9.184;2022-09-02T07:25:16;7.33;;;2.37;;
1296;SDS011;641;48.492;9.184;2022-09-02T07:27:42;7.80;;;2.73;;
1296;SDS011;641;48.492;9.184;2022-09-02T07:30:08;8.27;;;2.70;;
1296;SDS011;641;48.492;9.184;2022-09-02T07:32:36;7.63;;;2.33;;
1296;SDS011;641;48.492;9.184;2022-09-02T07:35:03;11.73;;;3.07;;
1296;SDS011;641;48.492;9.184;2022-09-02T07:37:31;7.07;;;2.23;;
1296;SDS011;641;48.492;9.184;2022-09-02T07:39:58;8.47;;;2.70;;
1296;SDS011;641;48.492;9.184;2022-09-02T07:42:26;7.60;;;2.50;;
1296;SDS011;641;48.492;9.184;2022-09-02T07:44:51;9.27;;;2.60;;
1296;SDS011;641;48.492;9.184;2022-09-02T07:47:17;7.03;;;2.43;;
1296;SDS011;641;48.492;9.184;2022-09-02T07:49:43;8.60;;;2.27;;
1296;SDS011;641;48.492;9.184;2022-09-02T07:52:09;8.50;;;2.13;;
1296;SDS011;641;48.492;9.184;2022-09-02T07:54:34;12.30;;;2.87;;
1296;SDS011;641;48.492;9.184;2022-09-02T07:57:00;7.50;;;2.53;;
1296;SDS011;641;48.492;9.184;2022-09-02T07:59:25;8.43;;;2.73;;
1296;SDS011;641;48.492;9.184;2022-09-02T08:01:51;7.03;;;2.53;;
1296;SDS011;641;48.492;9.184;2022-09-02T08:04:18;8.30;;;3.00;;
1296;SDS011;641;48.492;9.184;2022-09-02T08:06:47;7.60;;;2.37;;
1296;SDS011;641;48.492;9.184;2022-09-02T08:09:14;7.77;;;2.80;;
1296;SDS011;641;48.492;9.184;2022-09-02T08:11:42;7.20;;;2.10;;
1296;SDS011;641;48.492;9.184;2022-09-02T08:14:11;13.33;;;2.90;;
1296;SDS011;641;48.492;9.184;2022-09-02T08:16:39;9.07;;;2.70;;
1296;SDS011;641;48.492;9.184;2022-09-02T08:19:05;8.00;;;2.60;;
1296;SDS011;641;48.492;9.184;2022-09-02T08:21:31;8.00;;;2.60;;
1296;SDS011;641;48.492;9.184;2022-09-02T08:23:57;8.93;;;2.23;;
1296;SDS011;641;48.492;9.184;2022-09-02T08:26:22;9.20;;;2.07;;
1296;SDS011;641;48.492;9.184;2022-09-02T08:28:49;7.13;;;2.40;;
1296;SDS011;641;48.492;9.184;2022-09-02T08:31:14;8.27;;;2.17;;
1296;SDS011;641;48.492;9.184;2022-09-02T08:33:40;7.37;;;2.70;;
1296;SDS011;641;48.492;9.184;2022-09-02T08:36:06;7.50;;;2.17;;
1296;SDS011;641;48.492;9.184;2022-09-02T08:38:35;7.30;;;2.37;;
1296;SDS011;641;48.492;9.184;2022-09-02T08:41:01;6.80;;;1.67;;
1296;SDS011;641;48.492;9.184;2022-09-02T08:43:39;6.03;;;1.63;;
1296;SDS011;641;48.492;9.184;2022-09-02T08:46:08;8.50;;;2.10;;
1296;SDS011;641;48.492;9.184;2022-09-02T08:51:20;6.77;;;1.57;;
1296;SDS011;641;48.492;9.184;2022-09-02T08:54:04;7.53;;;1.67;;
1296;SDS011;641;48.492;9.184;2022-09-02T08:56:48;6.20;;;1.30;;
1296;SDS011;641;48.492;9.184;2022-09-02T08:59:16;7.53;;;1.53;;
1296;SDS011;641;48.492;9.184;2022-09-02T09:01:59;8.10;;;1.53;;
1296;SDS011;641;48.492;9.184;2022-09-02T09:18:58;6.53;;;1.53;;
1296;SDS011;641;48.492;9.184;2022-09-02T09:21:55;10.30;;;1.93;;
1296;SDS011;641;48.492;9.184;2022-09-02T09:24:58;6.53;;;1.70;;
1296;SDS011;641;48.492;9.184;2022-09-02T09:27:17;6.60;;;1.73;;
1296;SDS011;641;48.492;9.184;2022-09-02T09:29:47;13.00;;;1.63;;
1296;SDS011;641;48.492;9.184;2022-09-02T09:32:35;9.03;;;1.80;;
1296;SDS011;641;48.492;9.184;2022-09-02T09:35:07;7.67;;;1.60;;
1296;SDS011;641;48.492;9.184;2022-09-02T09:37:35;8.80;;;1.60;;
1296;SDS011;641;48.492;9.184;2022-09-02T09:42:44;8.20;;;1.93;;
1296;SDS011;641;48.492;9.184;2022-09-02T09:45:16;6.50;;;1.83;;
1296;SDS011;641;48.492;9.184;2022-09-02T09:50:37;7.07;;;1.80;;
1296;SDS011;641;48.492;9.184;2022-09-02T09:53:15;6.60;;;1.70;;
1296;SDS011;641;48.492;9.184;2022-09-02T09:58:21;6.60;;;1.77;;
1296;SDS011;641;48.492;9.184;2022-09-02T10:00:50;6.60;;;1.63;;
1296;SDS011;641;48.492;9.184;2022-09-02T10:03:21;7.00;;;1.73;;
1296;SDS011;641;48.492;9.184;2022-09-02T10:05:57;6.90;;;1.80;;
1296;SDS011;641;48.492;9.184;2022-09-02T10:08:25;7.33;;;2.10;;
1296;SDS011;641;48.492;9.184;2022-09-02T10:10:56;7.93;;;1.90;;
1296;SDS011;641;48.492;9.184;2022-09-02T10:13:28;9.03;;;2.30;;
1296;SDS011;641;48.492;9.184;2022-09-02T10:19:02;7.00;;;2.20;;
1296;SDS011;641;48.492;9.184;2022-09-02T10:27:13;7.37;;;1.70;;
1296;SDS011;641;48.492;9.184;2022-09-02T10:29:45;7.37;;;1.80;;
1296;SDS011;641;48.492;9.184;2022-09-02T10:35:08;7.27;;;1.90;;
1296;SDS011;641;48.492;9.184;2022-09-02T10:37:43;6.70;;;2.03;;
1296;SDS011;641;48.492;9.184;2022-09-02T10:40:15;7.33;;;1.60;;
1296;SDS011;641;48.492;9.184;2022-09-02T10:43:04;7.50;;;2.10;;
1296;SDS011;641;48.492;9.184;2022-09-02T10:45:41;7.13;;;1.90;;
1296;SDS011;641;48.492;9.184;2022-09-02T10:48:15;9.47;;;2.17;;
1296;SDS011;641;48.492;9.184;2022-09-02T10:56:44;6.90;;;1.87;;
1296;SDS011;641;48.492;9.184;2022-09-02T10:59:40;6.87;;;2.13;;
1296;SDS011;641;48.492;9.184;2022-09-02T11:05:21;6.40;;;1.70;;
1296;SDS011;641;48.492;9.184;2022-09-02T11:10:52;6.90;;;1.73;;
1296;SDS011;641;48.492;9.184;2022-09-02T11:13:28;7.33;;;2.27;;
1296;SDS011;641;48.492;9.184;2022-09-02T11:16:15;7.00;;;1.87;;
1296;SDS011;641;48.492;9.184;2022-09-02T11:19:07;6.50;;;2.03;;
1296;SDS011;641;48.492;9.184;2022-09-02T11:24:38;7.27;;;2.20;;
1296;SDS011;641;48.492;9.184;2022-09-02T11:30:08;7.10;;;2.03;;
1296;SDS011;641;48.492;9.184;2022-09-02T11:35:21;6.93;;;2.37;;
1296;SDS011;641;48.492;9.184;2022-09-02T11:40:27;7.57;;;2.30;;
1296;SDS011;641;48.492;9.184;2022-09-02T11:49:07;7.63;;;1.93;;
1296;SDS011;641;48.492;9.184;2022-09-02T11:54:25;8.80;;;1.90;;
1296;SDS011;641;48.492;9.184;2022-09-02T11:56:59;7.77;;;2.03;;
1296;SDS011;641;48.492;9.184;2022-09-02T12:07:57;7.17;;;2.37;;
1296;SDS011;641;48.492;9.184;2022-09-02T12:13:09;7.03;;;2.13;;
1296;SDS011;641;48.492;9.184;2022-09-02T12:21:19;6.23;;;1.80;;
1296;SDS011;641;48.492;9.184;2022-09-02T12:26:21;7.40;;;1.90;;
1296;SDS011;641;48.492;9.184;2022-09-02T12:28:50;6.80;;;2.10;;
1296;SDS011;641;48.492;9.184;2022-09-02T12:36:52;9.40;;;2.47;;
1296;SDS011;641;48.492;9.184;2022-09-02T12:44:33;11.00;;;2.10;;
1296;SDS011;641;48.492;9.184;2022-09-02T12:55:12;7.00;;;1.90;;
1296;SDS011;641;48.492;9.184;2022-09-02T12:57:48;6.53;;;2.00;;
1296;SDS011;641;48.492;9.184;2022-09-02T13:00:27;7.20;;;2.40;;
1296;SDS011;641;48.492;9.184;2022-09-02T13:03:02;6.60;;;1.87;;
1296;SDS011;641;48.492;9.184;2022-09-02T13:27:41;6.90;;;1.73;;
1296;SDS011;641;48.492;9.184;2022-09-02T13:30:20;7.17;;;2.33;;
1296;SDS011;641;48.492;9.184;2022-09-02T13:33:09;6.23;;;1.77;;
1296;SDS011;641;48.492;9.184;2022-09-02T13:35:37;8.43;;;1.90;;
1296;SDS011;641;48.492;9.184;2022-09-02T13:38:04;7.23;;;1.87;;
1296;SDS011;641;48.492;9.184;2022-09-02T13:40:34;8.13;;;1.93;;
1296;SDS011;641;48.492;9.184;2022-09-02T13:43:02;6.80;;;1.87;;
1296;SDS011;641;48.492;9.184;2022-09-02T13:45:49;7.60;;;1.97;;
1296;SDS011;641;48.492;9.184;2022-09-02T13:48:19;7.00;;;2.30;;
1296;SDS011;641;48.492;9.184;2022-09-02T13:50:48;6.67;;;1.73;;
1296;SDS011;641;48.492;9.184;2022-09-02T13:53:20;6.90;;;1.80;;
1296;SDS011;641;48.492;9.184;2022-09-02T13:55:57;7.20;;;1.77;;
1296;SDS011;641;48.492;9.184;2022-09-02T13:58:30;8.50;;;2.20;;
1296;SDS011;641;48.492;9.184;2022-09-02T14:03:48;6.90;;;1.80;;
1296;SDS011;641;48.492;9.184;2022-09-02T14:06:28;6.20;;;1.80;;
1296;SDS011;641;48.492;9.184;2022-09-02T14:09:01;6.93;;;1.80;;
1296;SDS011;641;48.492;9.184;2022-09-02T14:11:32;10.43;;;1.93;;
1296;SDS011;641;48.492;9.184;2022-09-02T14:14:06;7.70;;;2.47;;
1296;SDS011;641;48.492;9.184;2022-09-02T14:16:34;7.90;;;1.80;;
1296;SDS011;641;48.492;9.184;2022-09-02T14:21:48;6.73;;;1.90;;
1296;SDS011;641;48.492;9.184;2022-09-02T14:24:28;7.47;;;1.80;;
1296;SDS011;641;48.492;9.184;2022-09-02T14:27:01;7.50;;;2.20;;
1296;SDS011;641;48.492;9.184;2022-09-02T14:29:27;7.13;;;1.90;;
1296;SDS011;641;48.492;9.184;2022-09-02T14:34:47;7.20;;;1.93;;
1296;SDS011;641;48.492;9.184;2022-09-02T14:37:23;6.00;;;1.70;;
1296;SDS011;641;48.492;9.184;2022-09-02T14:42:25;6.97;;;1.70;;
1296;SDS011;641;48.492;9.184;2022-09-02T14:44:51;7.17;;;2.07;;
1296;SDS011;641;48.492;9.184;2022-09-02T14:47:17;7.50;;;2.30;;
1296;SDS011;641;48.492;9.184;2022-09-02T14:49:49;6.30;;;2.00;;
1296;SDS011;641;48.492;9.184;2022-09-02T14:52:20;8.13;;;2.10;;
1296;SDS011;641;48.492;9.184;2022-09-02T14:54:50;6.17;;;1.60;;
1296;SDS011;641;48.492;9.184;2022-09-02T14:57:21;6.40;;;1.90;;
1296;SDS011;641;48.492;9.184;2022-09-02T14:59:56;6.87;;;1.87;;
1296;SDS011;641;48.492;9.184;2022-09-02T15:04:52;6.50;;;2.07;;
1296;SDS011;641;48.492;9.184;2022-09-02T15:07:18;6.63;;;1.90;;
1296;SDS011;641;48.492;9.184;2022-09-02T15:09:43;7.37;;;1.83;;
1296;SDS011;641;48.492;9.184;2022-09-02T15:12:10;6.27;;;1.40;;
1296;SDS011;641;48.492;9.184;2022-09-02T15:14:37;6.33;;;1.60;;
1296;SDS011;641;48.492;9.184;2022-09-02T15:17:05;6.10;;;1.60;;
1296;SDS011;641;48.492;9.184;2022-09-02T15:19:34;7.33;;;1.80;;
1296;SDS011;641;48.492;9.184;2022-09-02T15:22:00;8.63;;;1.87;;
1296;SDS011;641;48.492;9.184;2022-09-02T15:24:27;6.23;;;1.67;;
1296;SDS011;641;48.492;9.184;2022-09-02T15:26:52;7.33;;;1.57;;
1296;SDS011;641;48.492;9.184;2022-09-02T15:29:18;7.33;;;2.00;;
1296;SDS011;641;48.492;9.184;2022-09-02T15:31:44;6.30;;;1.50;;
1296;SDS011;641;48.492;9.184;2022-09-02T15:34:10;7.20;;;1.60;;
1296;SDS011;641;48.492;9.184;2022-09-02T15:36:36;7.60;;;1.70;;
1296;SDS011;641;48.492;9.184;2022-09-02T15:39:02;7.17;;;2.17;;
1296;SDS011;641;48.492;9.184;2022-09-02T15:41:28;6.20;;;1.53;;
1296;SDS011;641;48.492;9.184;2022-09-02T15:43:55;6.70;;;2.20;;
1296;SDS011;641;48.492;9.184;2022-09-02T15:48:58;7.03;;;1.70;;
1296;SDS011;641;48.492;9.184;2022-09-02T15:51:26;7.80;;;1.73;;
1296;SDS011;641;48.492;9.184;2022-09-02T15:53:55;7.47;;;1.80;;
1296;SDS011;641;48.492;9.184;2022-09-02T15:56:23;6.23;;;1.70;;
1296;SDS011;641;48.492;9.184;2022-09-02T15:58:53;6.50;;;1.80;;
1296;SDS011;641;48.492;9.184;2022-09-02T16:01:27;6.40;;;2.00;;
1296;SDS011;641;48.492;9.184;2022-09-02T16:03:58;6.80;;;1.87;;
1296;SDS011;641;48.492;9.184;2022-09-02T16:06:26;6.57;;;1.67;;
1296;SDS011;641;48.492;9.184;2022-09-02T16:08:52;6.37;;;1.67;;
1296;SDS011;641;48.492;9.184;2022-09-02T16:11:18;6.77;;;2.03;;
1296;SDS011;641;48.492;9.184;2022-09-02T16:13:44;6.87;;;1.80;;
1296;SDS011;641;48.492;9.184;2022-09-02T16:16:10;7.53;;;1.70;;
1296;SDS011;641;48.492;9.184;2022-09-02T16:18:38;8.00;;;1.97;;
1296;SDS011;641;48.492;9.184;2022-09-02T16:21:05;13.43;;;2.60;;
1296;SDS011;641;48.492;9.184;2022-09-02T16:23:32;6.77;;;1.77;;
1296;SDS011;641;48.492;9.184;2022-09-02T16:26:32;6.60;;;1.83;;
1296;SDS011;641;48.492;9.184;2022-09-02T16:28:54;7.50;;;1.80;;
1296;SDS011;641;48.492;9.184;2022-09-02T16:31:25;7.93;;;1.80;;
1296;SDS011;641;48.492;9.184;2022-09-02T16:33:53;6.70;;;1.60;;
1296;SDS011;641;48.492;9.184;2022-09-02T16:36:20;7.00;;;1.60;;
1296;SDS011;641;48.492;9.184;2022-09-02T16:38:47;9.20;;;2.00;;
1296;SDS011;641;48.492;9.184;2022-09-02T16:43:49;6.67;;;1.70;;
1296;SDS011;641;48.492;9.184;2022-09-02T16:46:15;6.80;;;1.90;;
1296;SDS011;641;48.492;9.184;2022-09-02T16:48:41;8.50;;;2.00;;
1296;SDS011;641;48.492;9.184;2022-09-02T16:51:07;6.23;;;1.60;;
1296;SDS011;641;48.492;9.184;2022-09-02T16:53:32;6.53;;;1.60;;
1296;SDS011;641;48.492;9.184;2022-09-02T16:55:58;8.70;;;2.37;;
1296;SDS011;641;48.492;9.184;2022-09-02T16:58:24;7.70;;;2.00;;
1296;SDS011;641;48.492;9.184;2022-09-02T17:00:50;6.67;;;1.70;;
1296;SDS011;641;48.492;9.184;2022-09-02T17:03:16;10.47;;;2.20;;
1296;SDS011;641;48.492;9.184;2022-09-02T17:05:42;8.00;;;2.07;;
1296;SDS011;641;48.492;9.184;2022-09-02T17:08:08;7.20;;;1.90;;
1296;SDS011;641;48.492;9.184;2022-09-02T17:10:34;7.90;;;2.10;;
1296;SDS011;641;48.492;9.184;2022-09-02T17:13:00;7.80;;;1.83;;
1296;SDS011;641;48.492;9.184;2022-09-02T17:15:26;13.20;;;2.10;;
1296;SDS011;641;48.492;9.184;2022-09-02T17:17:53;7.80;;;2.17;;
1296;SDS011;641;48.492;9.184;2022-09-02T17:20:20;7.30;;;2.47;;
1296;SDS011;641;48.492;9.184;2022-09-02T17:22:46;6.70;;;2.00;;
1296;SDS011;641;48.492;9.184;2022-09-02T17:25:13;9.00;;;2.30;;
1296;SDS011;641;48.492;9.184;2022-09-02T17:27:39;8.30;;;2.10;;
1296;SDS011;641;48.492;9.184;2022-09-02T17:30:06;7.37;;;2.20;;
1296;SDS011;641;48.492;9.184;2022-09-02T17:32:35;6.90;;;1.93;;
1296;SDS011;641;48.492;9.184;2022-09-02T17:35:02;7.10;;;2.13;;
1296;SDS011;641;48.492;9.184;2022-09-02T17:37:28;9.57;;;2.17;;
1296;SDS011;641;48.492;9.184;2022-09-02T17:39:54;6.70;;;1.80;;
1296;SDS011;641;48.492;9.184;2022-09-02T17:42:19;6.50;;;1.87;;
1296;SDS011;641;48.492;9.184;2022-09-02T17:44:45;6.60;;;2.00;;
1296;SDS011;641;48.492;9.184;2022-09-02T17:47:16;6.80;;;2.13;;
1296;SDS011;641;48.492;9.184;2022-09-02T17:49:46;8.80;;;2.30;;
1296;SDS011;641;48.492;9.184;2022-09-02T17:52:16;6.60;;;1.80;;
1296;SDS011;641;48.492;9.184;2022-09-02T17:54:50;7.47;;;2.40;;
1296;SDS011;641;48.492;9.184;2022-09-02T17:57:21;8.57;;;2.27;;
1296;SDS011;641;48.492;9.184;2022-09-02T18:05:07;7.53;;;2.20;;
1296;SDS011;641;48.492;9.184;2022-09-02T18:07:51;6.73;;;2.23;;
1296;SDS011;641;48.492;9.184;2022-09-02T18:13:07;7.57;;;2.10;;
1296;SDS011;641;48.492;9.184;2022-09-02T18:18:15;7.17;;;2.00;;
1296;SDS011;641;48.492;9.184;2022-09-02T18:20:43;6.50;;;2.07;;
1296;SDS011;641;48.492;9.184;2022-09-02T18:26:24;10.03;;;2.70;;
1296;SDS011;641;48.492;9.184;2022-09-02T18:34:42;7.80;;;2.17;;
1296;SDS011;641;48.492;9.184;2022-09-02T18:40:20;7.07;;;2.10;;